Parker, AZ

7:57 AM MST on February 12, 2016 (GMT -0700)
The Keys | | Change Station
CLOSE
Current Station
Personal Weather Station
Location: Parker, AZ
Elevation: 381 ft
Nearby Weather Stations

Elev 381 ft 34.20 °N, 114.22 °W | Updated 15 seconds ago

Clear
Clear
53.1 °F
Feels Like 53.1 °F
N
0.0
Wind Variable Wind from NW
Gusts 0.0 mph

Today
High -- | Low -- °F
--% Chance of Precip.
Yesterday
High -- | Low -- °F
Precip. -- in
Pressure 30.15 in
Visibility 10.0 miles
Clouds Clear
Dew Point 35 °F
Humidity 50%
Rainfall 0.00 in
Snow Depth Not available.
7:25 AM 6:17 PM
Waxing Crescent, 21% visible
METAR KBLH 121452Z AUTO 26005KT 10SM CLR 09/M04 A3015 RMK AO2 SLP208 T00941044 53011
Pressure 30.15 in
Visibility 10.0 miles
Clouds Clear
Dew Point 35 °F
Humidity 50%
Rainfall 0.00 in
Snow Depth Not available.
7:25 AM 6:17 PM
Waxing Crescent, 21% visible
METAR KBLH 121452Z AUTO 26005KT 10SM CLR 09/M04 A3015 RMK AO2 SLP208 T00941044 53011

10-Day Weather Forecast

Almanac

Astronomy

Feb. 12, 2016 Rise Set
Actual Time
Civil Twilight
Nautical Twilight
Astronomical Twilight
Moon
Length of Visible Light
Length of Day
Tomorrow will be .
, % of the Moon is Illuminated

Today's Extremes

State Highs State Lows

Community

WunderPhotos

Upload Photos

1,892,318 photos uploaded!

WunderBlog® & News

Nearby

Air Quality

  Air Quality AQ Index Pollutant
Not available.

Snow Depth

Station Depth Elevation

Earthquake Activity

City Distance Mag. Time & Date
Minimum magnitude displayed is 2.5.

Coastal Water Temperatures

Place Temperature

Stations

Nearby Weather Stations

Station Location Temp. Windchill Dew Point Humidity Wind Precip. Elev Updated Type
                   

Watches & Warnings

There are currently no watches in effect.